Terminal Aerodrome Forecast
Issued by NWS Twin Cities, MN

Home | Current Version | Previous Version | Graphics & Text | Print | Product List | Glossary On
Versions: 1 2 3 4 5 6 7 8 9 10 11 12 13
000
FTUS43 KMPX 151720
TAFEAU
TAF
KEAU 151720Z 1518/1618 34010G18KT 3SM -SN SCT015 OVC030
      TEMPO 1518/1522 1 1/2SM -SN BKN015 OVC030
     FM160400 33007KT 6SM -SN SCT015 OVC025
     FM160900 33005KT P6SM SCT025 BKN040=

USA.gov is the U.S. government's official web portal to all federal, state and local government web resources and services.